createdAt,value
2022-11-15T07:25:06.642Z,99341.05
2022-11-15T07:27:30.392Z,99339.40
2022-11-15T07:29:53.690Z,99338.62
2022-11-15T07:32:16.985Z,99338.05
2022-11-15T07:34:40.187Z,99335.38
2022-11-15T07:37:03.041Z,99330.40
2022-11-15T07:39:26.177Z,99331.56
2022-11-15T07:41:49.566Z,99325.47
2022-11-15T07:44:12.757Z,99330.35
2022-11-15T07:46:36.085Z,99327.21
2022-11-15T07:48:59.266Z,99329.15
2022-11-15T07:51:22.208Z,99325.16
2022-11-15T07:53:45.498Z,99327.31
2022-11-15T07:56:10.111Z,99323.05
2022-11-15T07:58:33.122Z,99328.61
2022-11-15T08:00:56.341Z,99329.73
2022-11-15T08:03:19.682Z,99332.13
2022-11-15T08:05:44.102Z,99329.06
2022-11-15T08:08:08.627Z,99323.39
2022-11-15T08:10:40.266Z,99321.30
2022-11-15T08:13:06.094Z,99321.48
2022-11-15T08:15:29.817Z,99317.91
2022-11-15T08:17:57.442Z,99317.89
2022-11-15T08:20:20.412Z,99315.46
2022-11-15T08:22:43.630Z,99315.65
2022-11-15T08:25:07.481Z,99318.42
2022-11-15T08:27:30.706Z,99316.27
2022-11-15T08:29:58.336Z,99317.98
2022-11-15T08:32:22.485Z,99310.10
2022-11-15T08:34:47.064Z,99309.78
2022-11-15T08:37:10.529Z,99312.52
2022-11-15T08:39:33.935Z,99307.69
2022-11-15T08:41:56.845Z,99311.56
2022-11-15T08:44:20.280Z,99309.48
2022-11-15T08:46:43.253Z,99307.22
2022-11-15T08:49:06.587Z,99309.69
2022-11-15T08:51:29.672Z,99319.45
2022-11-15T08:53:52.780Z,99319.35
2022-11-15T08:56:16.792Z,99312.48
2022-11-15T08:58:40.742Z,99309.61
2022-11-15T09:01:04.315Z,99308.98
2022-11-15T09:03:28.499Z,99303.63
2022-11-15T09:05:57.694Z,99311.35
2022-11-15T09:08:48.812Z,99316.04
2022-11-15T09:11:07.562Z,99315.55
2022-11-15T09:13:30.493Z,99315.54
2022-11-15T09:15:53.688Z,99308.04
2022-11-15T09:18:17.029Z,99302.21
2022-11-15T09:20:40.277Z,99293.52
2022-11-15T09:23:04.555Z,99297.34
2022-11-15T09:25:27.969Z,99286.95
2022-11-15T09:27:51.591Z,99290.77
2022-11-15T09:30:16.194Z,99293.51
2022-11-15T09:32:39.692Z,99293.93
2022-11-15T09:35:02.910Z,99289.88
2022-11-15T09:37:26.352Z,99281.58
2022-11-15T09:39:49.797Z,99279.60
2022-11-15T09:42:31.417Z,99274.95
2022-11-15T09:45:14.164Z,99268.71
2022-11-15T09:48:01.468Z,99265.70
2022-11-15T09:50:29.874Z,99263.48
2022-11-15T09:52:42.482Z,99259.89
2022-11-15T09:54:53.907Z,99257.90
2022-11-15T09:57:15.763Z,99256.83
2022-11-15T09:59:30.896Z,99250.82
2022-11-15T10:01:45.833Z,99245.59
2022-11-15T10:03:50.557Z,99242.25
2022-11-15T10:06:01.238Z,99245.17
2022-11-15T10:08:14.610Z,99241.63
2022-11-15T10:10:26.398Z,99243.99
2022-11-15T10:12:32.368Z,99246.08
2022-11-15T10:14:37.950Z,99240.42
2022-11-15T10:17:03.497Z,99237.73
2022-11-15T10:19:17.227Z,99228.52
2022-11-15T10:21:26.343Z,99220.66
2022-11-15T10:23:32.783Z,99216.48
2022-11-15T10:25:37.916Z,99209.81
2022-11-15T10:27:46.326Z,99206.61
2022-11-15T10:29:51.695Z,99207.41
2022-11-15T10:31:56.305Z,99210.27
2022-11-15T10:34:14.257Z,99203.99
2022-11-15T10:36:22.941Z,99199.01
2022-11-15T10:38:27.593Z,99192.30
2022-11-15T10:40:32.188Z,99188.34
2022-11-15T10:42:36.823Z,99191.56
2022-11-15T10:44:45.241Z,99190.27
2022-11-15T10:47:05.143Z,99183.11
2022-11-15T10:49:21.086Z,99180.70
2022-11-15T10:51:29.112Z,99176.00
2022-11-15T10:53:41.622Z,99168.84
2022-11-15T10:55:50.737Z,99169.58
2022-11-15T10:58:00.100Z,99164.11
2022-11-15T11:00:26.424Z,99162.27
2022-11-15T11:02:33.885Z,99159.79
2022-11-15T11:04:52.016Z,99161.81
2022-11-15T11:06:58.455Z,99155.84
2022-11-15T11:09:05.084Z,99152.69
2022-11-15T11:11:09.799Z,99155.02
2022-11-15T11:13:24.364Z,99153.70
2022-11-15T11:15:30.635Z,99150.93
2022-11-15T11:17:52.895Z,99147.02
2022-11-15T11:20:07.926Z,99137.23
2022-11-15T11:22:23.444Z,99132.42
2022-11-15T11:24:37.610Z,99133.93
2022-11-15T11:26:47.359Z,99124.96
2022-11-15T11:29:03.062Z,99127.54
2022-11-15T11:31:19.248Z,99124.11
2022-11-15T11:33:28.137Z,99121.08
2022-11-15T11:35:42.316Z,99117.33
2022-11-15T11:37:51.377Z,99118.36
2022-11-15T11:40:11.089Z,99113.77
2022-11-15T11:42:25.349Z,99111.48
2022-11-15T11:44:55.090Z,99104.88
2022-11-15T11:47:02.710Z,99102.91
2022-11-15T11:49:13.872Z,99099.04
2022-11-15T11:51:25.614Z,99096.13
2022-11-15T11:53:38.735Z,99090.52
2022-11-15T11:55:48.497Z,99081.23
2022-11-15T11:58:00.555Z,99079.52
2022-11-15T12:00:14.994Z,99074.61
2022-11-15T12:02:32.768Z,99074.16
2022-11-15T12:04:44.358Z,99072.25
2022-11-15T12:06:54.632Z,99070.45
2022-11-15T12:09:05.635Z,99063.40
2022-11-15T12:11:14.664Z,99061.59
2022-11-15T12:13:24.500Z,99059.52
2022-11-15T12:15:33.069Z,99057.83
2022-11-15T12:17:41.053Z,99055.70
2022-11-15T12:19:46.359Z,99050.13
2022-11-15T12:21:56.346Z,99040.01
2022-11-15T12:24:05.435Z,99037.96
2022-11-15T12:26:17.419Z,99032.89
2022-11-15T12:28:30.501Z,99025.14
2022-11-15T12:30:46.918Z,99024.90
2022-11-15T12:32:58.106Z,99021.20
2022-11-15T12:35:04.745Z,99019.33
2022-11-15T12:37:48.637Z,99020.44
2022-11-15T12:40:22.102Z,99015.94
2022-11-15T12:42:42.831Z,99013.59
2022-11-15T12:45:02.593Z,99011.52
2022-11-15T12:47:25.490Z,99014.91
2022-11-15T12:49:47.524Z,99013.27
2022-11-15T12:52:07.081Z,99012.05
2022-11-15T12:54:44.274Z,99010.10
2022-11-15T12:57:22.379Z,99003.15
2022-11-15T12:59:51.102Z,99001.31
2022-11-15T13:02:03.044Z,98995.50
2022-11-15T13:04:25.261Z,98990.28
2022-11-15T13:06:43.520Z,98986.48
2022-11-15T13:08:52.268Z,98983.23
2022-11-15T13:10:56.913Z,98978.22
2022-11-15T13:13:02.845Z,98981.00
2022-11-15T13:15:46.307Z,98977.63
2022-11-15T13:17:52.094Z,98972.09
2022-11-15T13:20:03.361Z,98968.79
2022-11-15T13:22:11.186Z,98967.20
2022-11-15T13:24:18.382Z,98963.33
2022-11-15T13:26:23.771Z,98962.57
2022-11-15T13:28:35.282Z,98960.13
2022-11-15T13:30:40.846Z,98962.48
2022-11-15T13:32:45.595Z,98958.79
2022-11-15T13:34:52.899Z,98959.33
2022-11-15T13:36:57.857Z,98958.80
2022-11-15T13:39:06.059Z,98958.83
2022-11-15T13:41:23.466Z,98951.89
2022-11-15T13:43:38.020Z,98947.14
2022-11-15T13:45:42.796Z,98945.23
2022-11-15T13:47:51.854Z,98947.70
2022-11-15T13:49:59.367Z,98947.48
2022-11-15T13:52:06.539Z,98949.55
2022-11-15T13:54:21.565Z,98948.36
2022-11-15T13:56:28.553Z,98941.57
2022-11-15T13:58:33.877Z,98935.30
2022-11-15T14:00:41.373Z,98927.71
2022-11-15T14:02:46.097Z,98923.54
2022-11-15T14:04:53.082Z,98918.83
2022-11-15T14:06:59.948Z,98914.81
2022-11-15T14:09:30.126Z,98911.33
2022-11-15T14:11:34.939Z,98905.96
2022-11-15T14:13:39.647Z,98903.68
2022-11-15T14:15:44.497Z,98903.90
2022-11-15T14:17:50.377Z,98901.40
2022-11-15T14:19:55.372Z,98899.75
2022-11-15T14:22:22.292Z,98900.90
2022-11-15T14:24:32.518Z,98902.20
2022-11-15T14:26:37.407Z,98903.80
2022-11-15T14:28:42.057Z,98902.30
2022-11-15T14:30:47.820Z,98903.25
2022-11-15T14:32:53.124Z,98903.58
2022-11-15T14:34:59.207Z,98904.79
2022-11-15T14:37:03.828Z,98901.79
2022-11-15T14:39:08.832Z,98901.34
2022-11-15T14:41:21.078Z,98901.60
2022-11-15T14:43:25.757Z,98898.41
2022-11-15T14:45:30.679Z,98896.24
2022-11-15T14:47:35.325Z,98894.70
2022-11-15T14:49:40.332Z,98890.02
2022-11-15T14:51:45.018Z,98888.79
2022-11-15T14:53:49.756Z,98889.41
2022-11-15T14:55:54.420Z,98887.42
2022-11-15T14:57:59.464Z,98887.77
2022-11-15T15:00:06.862Z,98887.20
2022-11-15T15:02:21.982Z,98880.27
2022-11-15T15:04:26.565Z,98872.57
2022-11-15T15:06:32.420Z,98874.36
2022-11-15T15:08:37.329Z,98873.16
2022-11-15T15:10:46.533Z,98867.20
2022-11-15T15:12:55.524Z,98865.23
2022-11-15T15:15:02.921Z,98866.48
2022-11-15T15:17:07.607Z,98871.80
2022-11-15T15:19:12.195Z,98874.11
2022-11-15T15:21:25.099Z,98875.88
2022-11-15T15:23:29.746Z,98878.57
2022-11-15T15:25:37.670Z,98875.77
2022-11-15T15:27:43.605Z,98874.63
2022-11-15T15:29:48.228Z,98873.28
2022-11-15T15:31:52.912Z,98869.15
2022-11-15T15:33:57.522Z,98866.45
2022-11-15T15:36:02.375Z,98865.92
2022-11-15T15:38:07.043Z,98869.85
2022-11-15T15:40:17.246Z,98862.50
2022-11-15T15:42:25.723Z,98862.98
2022-11-15T15:44:30.515Z,98855.45
2022-11-15T15:46:36.516Z,98851.38
2022-11-15T15:48:41.202Z,98845.93
2022-11-15T15:50:46.216Z,98843.73
2022-11-15T15:52:51.371Z,98846.05
2022-11-15T15:54:55.967Z,98845.57
2022-11-15T15:57:00.640Z,98844.94
2022-11-15T15:59:05.266Z,98841.51
2022-11-15T16:01:10.056Z,98842.01
2022-11-15T16:03:14.776Z,98840.90
2022-11-15T16:05:20.328Z,98839.91
2022-11-15T16:07:25.159Z,98841.63
2022-11-15T16:09:32.992Z,98838.64
2022-11-15T16:11:37.565Z,98832.04
2022-11-15T16:13:42.456Z,98828.06
2022-11-15T16:15:50.824Z,98831.30
2022-11-15T16:17:57.022Z,98832.84
2022-11-15T16:20:01.929Z,98835.76
2022-11-15T16:22:06.684Z,98834.05
2022-11-15T16:24:11.305Z,98832.35
2022-11-15T16:26:21.719Z,98831.77
2022-11-15T16:28:28.481Z,98827.30
2022-11-15T16:30:33.321Z,98826.13
2022-11-15T16:32:38.199Z,98825.52
2022-11-15T16:34:47.675Z,98820.97
2022-11-15T16:36:56.685Z,98821.27
2022-11-15T16:39:01.760Z,98822.51
2022-11-15T16:41:06.790Z,98831.71
2022-11-15T16:43:12.058Z,98833.52
2022-11-15T16:45:17.411Z,98833.58
2022-11-15T16:47:22.073Z,98833.99
2022-11-15T16:49:26.958Z,98828.09
2022-11-15T16:51:31.948Z,98828.38
2022-11-15T16:53:36.829Z,98827.06
2022-11-15T16:55:44.965Z,98822.11
2022-11-15T16:57:52.751Z,98816.48
2022-11-15T16:59:57.441Z,98812.34
2022-11-15T17:02:04.437Z,98810.91
2022-11-15T17:04:10.992Z,98809.41
2022-11-15T17:06:16.821Z,98814.23
2022-11-15T17:08:21.600Z,98814.55
2022-11-15T17:10:27.415Z,98819.42
2022-11-15T17:12:32.016Z,98819.39
2022-11-15T17:14:36.994Z,98819.64
2022-11-15T17:16:41.653Z,98818.49
2022-11-15T17:18:51.410Z,98819.31
2022-11-15T17:20:56.144Z,98815.41
2022-11-15T17:23:00.996Z,98811.89
2022-11-15T17:25:06.928Z,98808.81
2022-11-15T17:27:12.222Z,98812.71
2022-11-15T17:29:17.699Z,98811.37
2022-11-15T17:31:24.405Z,98807.50
2022-11-15T17:33:31.689Z,98806.12
2022-11-15T17:35:37.500Z,98801.06
2022-11-15T17:37:42.300Z,98796.73
2022-11-15T17:39:47.342Z,98792.41
2022-11-15T17:41:52.821Z,98793.77
2022-11-15T17:44:00.221Z,98800.00
2022-11-15T17:46:08.413Z,98795.34
2022-11-15T17:48:13.668Z,98793.14
2022-11-15T17:50:19.907Z,98790.13
2022-11-15T17:52:24.760Z,98784.61
2022-11-15T17:54:29.641Z,98785.45
2022-11-15T17:56:38.092Z,98779.55
2022-11-15T17:58:47.562Z,98774.83
2022-11-15T18:00:56.237Z,98768.15
2022-11-15T18:03:01.694Z,98774.14
2022-11-15T18:05:11.641Z,98765.70
2022-11-15T18:07:16.563Z,98763.63
2022-11-15T18:09:23.807Z,98759.65
2022-11-15T18:11:30.971Z,98754.73
2022-11-15T18:13:38.562Z,98752.69
2022-11-15T18:15:49.874Z,98753.92
2022-11-15T18:18:00.649Z,98750.96
2022-11-15T18:20:08.025Z,98749.54
2022-11-15T18:22:12.888Z,98743.98
2022-11-15T18:24:17.960Z,98741.23
2022-11-15T18:26:26.986Z,98747.55
2022-11-15T18:28:34.530Z,98749.00
2022-11-15T18:30:42.880Z,98754.16
2022-11-15T18:32:51.917Z,98752.69
2022-11-15T18:34:57.808Z,98748.23
2022-11-15T18:37:03.800Z,98745.02
2022-11-15T18:39:10.501Z,98741.98
2022-11-15T18:41:21.671Z,98738.08
2022-11-15T18:43:26.951Z,98737.42
2022-11-15T18:45:33.810Z,98736.57
2022-11-15T18:47:38.746Z,98735.66
2022-11-15T18:49:44.465Z,98732.52
2022-11-15T18:51:57.907Z,98735.63
2022-11-15T18:54:03.957Z,98737.90
2022-11-15T18:56:14.268Z,98741.09
2022-11-15T18:58:19.593Z,98737.94
2022-11-15T19:00:25.975Z,98735.76
2022-11-15T19:02:34.923Z,98733.23
2022-11-15T19:04:40.348Z,98733.34
2022-11-15T19:06:46.652Z,98726.27
2022-11-15T19:08:53.939Z,98725.14
2022-11-15T19:11:04.395Z,98723.30
2022-11-15T19:13:09.535Z,98723.63
2022-11-15T19:15:15.898Z,98719.69
2022-11-15T19:17:21.545Z,98717.70
2022-11-15T19:19:29.263Z,98718.27
2022-11-15T19:21:36.521Z,98712.06
2022-11-15T19:23:44.289Z,98711.92
2022-11-15T19:25:57.966Z,98709.80
2022-11-15T19:28:04.539Z,98714.95
2022-11-15T19:30:14.433Z,98718.17
2022-11-15T19:32:20.823Z,98718.86
2022-11-15T19:34:26.588Z,98720.16
2022-11-15T19:36:34.449Z,98723.17
2022-11-15T19:38:40.360Z,98721.67
2022-11-15T19:40:57.481Z,98723.62
2022-11-15T19:43:03.608Z,98723.15
2022-11-15T19:45:11.148Z,98726.94
2022-11-15T19:47:17.306Z,98725.34
2022-11-15T19:49:23.404Z,98725.30
2022-11-15T19:51:30.079Z,98719.77
2022-11-15T19:53:36.398Z,98715.02
2022-11-15T19:55:45.152Z,98710.42
2022-11-15T19:57:52.576Z,98710.72
2022-11-15T20:00:01.874Z,98706.39
2022-11-15T20:02:11.412Z,98704.91
2022-11-15T20:04:19.600Z,98698.40
2022-11-15T20:06:28.134Z,98698.41
2022-11-15T20:08:37.818Z,98694.44
2022-11-15T20:10:45.803Z,98689.69
2022-11-15T20:12:54.208Z,98685.54
2022-11-15T20:14:59.217Z,98683.38
2022-11-15T20:17:04.776Z,98678.48
2022-11-15T20:19:11.196Z,98675.82
2022-11-15T20:21:17.139Z,98675.77
2022-11-15T20:23:23.077Z,98673.13
2022-11-15T20:25:29.181Z,98672.79
2022-11-15T20:27:35.427Z,98672.16
2022-11-15T20:29:44.850Z,98673.07
2022-11-15T20:31:52.432Z,98666.45
2022-11-15T20:33:58.114Z,98662.76
2022-11-15T20:36:07.996Z,98656.96
2022-11-15T20:38:15.778Z,98649.89
2022-11-15T20:40:20.650Z,98651.68
2022-11-15T20:42:25.911Z,98649.02
2022-11-15T20:44:31.466Z,98651.33
2022-11-15T20:46:36.194Z,98647.05
2022-11-15T20:48:41.756Z,98643.38
2022-11-15T20:50:47.976Z,98640.70
2022-11-15T20:52:55.403Z,98646.43
2022-11-15T20:55:01.021Z,98651.42
2022-11-15T20:57:07.631Z,98652.91
2022-11-15T20:59:12.801Z,98653.85
2022-11-15T21:01:19.988Z,98647.67
2022-11-15T21:03:24.720Z,98647.89
2022-11-15T21:05:30.944Z,98652.45
2022-11-15T21:07:36.162Z,98647.13
2022-11-15T21:09:40.857Z,98643.58
2022-11-15T21:11:45.982Z,98640.48
2022-11-15T21:13:51.293Z,98642.08
2022-11-15T21:15:58.278Z,98641.19
2022-11-15T21:18:03.601Z,98639.16
2022-11-15T21:20:10.081Z,98636.88
2022-11-15T21:22:16.015Z,98640.42
2022-11-15T21:24:21.663Z,98636.12
2022-11-15T21:26:26.489Z,98640.31
2022-11-15T21:28:31.626Z,98638.88
2022-11-15T21:30:36.677Z,98641.80
2022-11-15T21:32:43.824Z,98643.89
2022-11-15T21:34:48.503Z,98641.20
2022-11-15T21:36:53.346Z,98638.42
2022-11-15T21:38:58.068Z,98635.71
2022-11-15T21:41:04.471Z,98637.88
2022-11-15T21:43:09.049Z,98633.77
2022-11-15T21:45:14.513Z,98635.83
2022-11-15T21:47:19.807Z,98631.09
2022-11-15T21:49:24.479Z,98628.65
2022-11-15T21:51:29.281Z,98621.90
2022-11-15T21:53:34.832Z,98620.88
2022-11-15T21:55:43.369Z,98620.33
2022-11-15T21:57:48.108Z,98617.34
2022-11-15T21:59:53.557Z,98614.88
2022-11-15T22:01:58.811Z,98614.97
2022-11-15T22:04:04.439Z,98607.63
2022-11-15T22:06:11.816Z,98603.85
2022-11-15T22:08:21.375Z,98603.72
2022-11-15T22:10:26.160Z,98603.90
2022-11-15T22:12:30.831Z,98605.45
2022-11-15T22:14:35.821Z,98607.17
2022-11-15T22:16:40.668Z,98607.25
2022-11-15T22:18:45.464Z,98602.27
2022-11-15T22:20:56.135Z,98605.44
2022-11-15T22:23:01.918Z,98601.36
2022-11-15T22:25:07.679Z,98596.95
2022-11-15T22:27:12.355Z,98596.08
2022-11-15T22:29:17.025Z,98596.80
2022-11-15T22:31:21.820Z,98596.19
2022-11-15T22:33:28.592Z,98592.78
2022-11-15T22:35:33.690Z,98586.02
2022-11-15T22:37:38.601Z,98585.98
2022-11-15T22:39:43.174Z,98582.44
2022-11-15T22:41:47.903Z,98577.80
2022-11-15T22:43:52.517Z,98571.14
2022-11-15T22:45:58.489Z,98564.89
2022-11-15T22:48:03.202Z,98564.45
2022-11-15T22:50:09.182Z,98560.80
2022-11-15T22:52:13.789Z,98558.34
2022-11-15T22:54:18.399Z,98554.41
2022-11-15T22:56:24.091Z,98561.66
2022-11-15T22:58:31.131Z,98560.12
2022-11-15T23:00:36.615Z,98562.90
2022-11-15T23:02:41.408Z,98559.83
2022-11-15T23:04:46.375Z,98560.23
2022-11-15T23:06:51.061Z,98557.85
2022-11-15T23:08:55.692Z,98553.27
2022-11-15T23:11:02.813Z,98555.16
2022-11-15T23:13:13.431Z,98551.45
2022-11-15T23:15:18.195Z,98548.44
2022-11-15T23:17:22.902Z,98547.15
2022-11-15T23:19:27.595Z,98542.70
2022-11-15T23:21:34.176Z,98542.69
2022-11-15T23:23:39.094Z,98540.20
2022-11-15T23:25:43.679Z,98543.05
2022-11-15T23:27:48.338Z,98539.35
2022-11-15T23:29:53.029Z,98537.80
2022-11-15T23:32:02.014Z,98534.74
2022-11-15T23:34:07.432Z,98535.48
2022-11-15T23:36:12.260Z,98534.26
2022-11-15T23:38:16.876Z,98531.64
2022-11-15T23:40:21.589Z,98526.36
2022-11-15T23:42:26.204Z,98524.17
2022-11-15T23:44:31.201Z,98522.73
2022-11-15T23:46:35.890Z,98521.09
2022-11-15T23:48:40.504Z,98524.52
2022-11-15T23:50:48.222Z,98522.89
2022-11-15T23:52:52.901Z,98515.02
2022-11-15T23:54:57.527Z,98513.59
2022-11-15T23:57:02.281Z,98508.02
2022-11-15T23:59:07.307Z,98504.92
